M/V Jesse B Gunstream Jr — WDB6583 — position and weather

sailwx.info

Track history (hours):
 
Tides and Currents Weather Stations Pressure Air Temp Water Temp Dewpoint Dewpoint Depression Visibility Wind Speed Wind Dir Waves Ship Positions

M/V Jesse B Gunstream Jr

Owner: Higman Barge Lines, Inc., ORANGE, TX. More information available from US FCC via Universal Licensing System and Coast Guard Vessel Documentation Center.

Last reported at 2018-Jun-16 11:09 UTC. Time now 2018-Jun-20 22:46 UTC.
Position N 29°34' W 090°33'.

Length 205 m; draft 2.7 m.

Type: . MMSI: 366926990.

Date/timePositionNaut miles runAvg speedWind from/ knotsBaromVisibWave heightAir tempDewpointWater temp
2018-Jun-16 11:09N 29°34' W 090°33'1 5.2
2018-Jun-16 11:00N 29°34' W 090°34'2 4.7
2018-Jun-16 10:30N 29°35' W 090°37'2 4.2
2018-Jun-16 09:59N 29°36' W 090°39'2 4.6
2018-Jun-16 09:30N 29°37' W 090°41'1 3.0
2018-Jun-16 09:00N 29°36' W 090°43'2 3.8
2018-Jun-16 08:30N 29°34' W 090°44'3 5.4
2018-Jun-16 08:00N 29°32' W 090°46'3 6.3
2018-Jun-16 07:30N 29°32' W 090°50'62 4.3
2018-Jun-15 17:05N 29°50' W 091°58'0 5.0
2018-Jun-15 17:00N 29°50' W 091°58'3 5.1
2018-Jun-15 16:30N 29°49' W 092°01'3 5.2
2018-Jun-15 16:00N 29°48' W 092°04'3 5.4
2018-Jun-15 15:30N 29°48' W 092°07'3 5.3
2018-Jun-15 15:00N 29°47' W 092°10'2 4.5
2018-Jun-15 14:30N 29°47' W 092°12'1 2.1
2018-Jun-15 14:00N 29°48' W 092°13'1 2.5
2018-Jun-15 13:30N 29°48' W 092°15'2 5.0
2018-Jun-15 13:00N 29°49' W 092°17'2 4.4
2018-Jun-15 12:30N 29°50' W 092°19'3 4.3
2018-Jun-15 11:47N 29°52' W 092°22'41 4.4
2018-Jun-15 02:18N 29°56' W 093°10'1 3.5
2018-Jun-15 02:00N 29°57' W 093°11'2 3.4
2018-Jun-15 01:29N 29°59' W 093°12'2 3.3
2018-Jun-15 01:00N 29°60' W 093°13'2 4.2
2018-Jun-15 00:30N 30°02' W 093°14'2 3.6
2018-Jun-15 00:00N 30°03' W 093°16'2 3.5
2018-Jun-14 23:30N 30°05' W 093°17'1 2.5
2018-Jun-14 23:00N 30°05' W 093°18'1 1.9
2018-Jun-14 22:30N 30°06' W 093°18'0 0.3
2018-Jun-14 22:00N 30°06' W 093°18'0 0.0
2018-Jun-14 21:28N 30°06' W 093°18'0 0.0
2018-Jun-14 21:00N 30°06' W 093°18'0 0.0
2018-Jun-14 20:30N 30°06' W 093°18'0 0.0
2018-Jun-14 20:00N 30°06' W 093°18'0 0.0
2018-Jun-14 19:30N 30°06' W 093°18'0 0.0
2018-Jun-14 19:00N 30°06' W 093°18'0 0.0
2018-Jun-14 18:30N 30°06' W 093°18'0 0.0
2018-Jun-14 18:00N 30°06' W 093°18'0 0.0
2018-Jun-14 17:30N 30°06' W 093°18'0 0.0
2018-Jun-14 17:00N 30°06' W 093°18'0 0.0
2018-Jun-14 16:30N 30°06' W 093°18'0 0.0
2018-Jun-14 15:59N 30°06' W 093°18'0 0.0
2018-Jun-14 15:30N 30°06' W 093°18'0 0.0
2018-Jun-14 15:00N 30°06' W 093°18'0 0.0
2018-Jun-14 14:30N 30°06' W 093°18'0 0.0
2018-Jun-14 14:00N 30°06' W 093°18'0 0.0
2018-Jun-14 13:25N 30°06' W 093°18'0 0.0
2018-Jun-14 13:00N 30°06' W 093°18'0 0.0
2018-Jun-14 12:25N 30°06' W 093°18'0 0.0
2018-Jun-14 12:00N 30°06' W 093°18'0 0.0
2018-Jun-14 11:28N 30°06' W 093°18'0 0.0
2018-Jun-14 11:00N 30°06' W 093°18'0 0.0
2018-Jun-14 10:30N 30°06' W 093°18'0 0.0
2018-Jun-14 10:00N 30°06' W 093°18'0 0.0
2018-Jun-14 09:30N 30°06' W 093°18'0 0.0
2018-Jun-14 09:00N 30°06' W 093°18'0 0.0
2018-Jun-14 08:30N 30°06' W 093°18'0 0.0
2018-Jun-14 08:00N 30°06' W 093°18'0 0.0
2018-Jun-14 07:30N 30°06' W 093°18'0 0.0
2018-Jun-14 07:00N 30°06' W 093°18'0 0.0
2018-Jun-14 06:30N 30°06' W 093°18'0 0.0
2018-Jun-14 06:00N 30°06' W 093°18'0 0.0
2018-Jun-14 05:29N 30°06' W 093°18'0 0.0
2018-Jun-14 05:00N 30°06' W 093°18'0 0.9
2018-Jun-14 04:30N 30°06' W 093°19'2 3.9
2018-Jun-14 04:00N 30°05' W 093°20'2 3.7
2018-Jun-14 03:30N 30°04' W 093°22'2 3.3
2018-Jun-14 03:00N 30°04' W 093°24'0 0.2
2018-Jun-14 02:30N 30°04' W 093°24'0 0.1
2018-Jun-14 02:00N 30°04' W 093°24'0 0.0
2018-Jun-14 01:30N 30°04' W 093°24'0 0.0
2018-Jun-14 01:00N 30°04' W 093°24'0 0.0
2018-Jun-14 00:29N 30°04' W 093°24'0 0.0
2018-Jun-13 23:59N 30°04' W 093°24'0 0.1
2018-Jun-13 23:30N 30°04' W 093°24'0 0.0
2018-Jun-13 23:00N 30°04' W 093°24'0 0.0
2018-Jun-13 22:30N 30°04' W 093°24'0 0.0
2018-Jun-13 21:59N 30°04' W 093°24'0 0.0
2018-Jun-13 21:28N 30°04' W 093°24'0 0.0
2018-Jun-13 21:00N 30°04' W 093°24'0 0.0
2018-Jun-13 20:30N 30°04' W 093°24'0 0.0
2018-Jun-13 20:00N 30°04' W 093°24'0 0.0
2018-Jun-13 19:29N 30°04' W 093°24'0 0.0
2018-Jun-13 19:00N 30°04' W 093°24'0 0.1
2018-Jun-13 18:30N 30°04' W 093°24'0 0.1
2018-Jun-13 18:00N 30°04' W 093°24'1 1.9
2018-Jun-13 17:29N 30°04' W 093°25'3 5.3
2018-Jun-13 17:00N 30°04' W 093°28'3 5.2
2018-Jun-13 16:30N 30°04' W 093°31'3 5.2
2018-Jun-13 16:00N 30°04' W 093°34'6 5.8
2018-Jun-13 15:03N 30°04' W 093°41'0 6.4
2018-Jun-13 14:59N 30°04' W 093°41'2 2.1
2018-Jun-13 13:56N 30°03' W 093°43'1 1.2
2018-Jun-13 13:29N 30°03' W 093°44'4 6.3
2018-Jun-13 12:52N 29°60' W 093°47'3 7.8
2018-Jun-13 12:30N 29°59' W 093°50'3 6.6
2018-Jun-13 12:00N 29°56' W 093°52'5 9.5
2018-Jun-13 11:30N 29°52' W 093°56'4 7.9
2018-Jun-13 11:00N 29°49' W 093°58'2 4.2
2018-Jun-13 10:30N 29°48' W 094°00'2 4.7
2018-Jun-13 10:00N 29°46' W 094°02'2 3.9
2018-Jun-13 09:30N 29°45' W 094°04'2 4.2
2018-Jun-13 09:00N 29°44' W 094°06'2 4.3
2018-Jun-13 08:30N 29°43' W 094°08'2 4.3
2018-Jun-13 08:00N 29°41' W 094°10'2 4.2
2018-Jun-13 07:30N 29°41' W 094°12'2 4.5
2018-Jun-13 07:00N 29°40' W 094°15'2 4.6
2018-Jun-13 06:29N 29°39' W 094°17'3 4.6
2018-Jun-13 05:56N 29°37' W 094°20'2 4.8
2018-Jun-13 05:29N 29°36' W 094°22'2 4.1
2018-Jun-13 04:59N 29°36' W 094°24'2 4.0
2018-Jun-13 04:28N 29°34' W 094°25'1 2.2
2018-Jun-13 03:55N 29°34' W 094°27'2 4.3
2018-Jun-13 03:30N 29°33' W 094°28'27 3.6
2018-Jun-12 19:55N 29°40' W 094°59'9 0.2
2018-Jun-11 03:40N 29°47' W 095°04'0 0.0
2018-Jun-11 03:24N 29°47' W 095°04'0 0.0
2018-Jun-11 02:56N 29°47' W 095°04'  
2018-Jun-07 06:30N 29°46' W 095°06'0 0.0
2018-Jun-07 05:52N 29°46' W 095°06'0 0.0
2018-Jun-07 04:36N 29°46' W 095°06'  
Track history (hours):
 
Tides and Currents Weather Stations Pressure Air Temp Water Temp Dewpoint Dewpoint Depression Visibility Wind Speed Wind Dir Waves Ship Positions

M/V Jesse B Gunstream Jr

Owner: Higman Barge Lines, Inc., ORANGE, TX. More information available from US FCC via Universal Licensing System and Coast Guard Vessel Documentation Center.

Last reported at 2018-Jun-16 11:09 UTC. Time now 2018-Jun-20 22:46 UTC.
Position N 29°34' W 090°33'.

Length 205 m; draft 2.7 m.

Type: . MMSI: 366926990.

Date/timePositionNaut miles runAvg speedWind from/ knotsBaromVisibWave heightAir tempDewpointWater temp
2018-Jun-16 11:09N 29°34' W 090°33'1 5.2
2018-Jun-16 11:00N 29°34' W 090°34'2 4.7
2018-Jun-16 10:30N 29°35' W 090°37'2 4.2
2018-Jun-16 09:59N 29°36' W 090°39'2 4.6
2018-Jun-16 09:30N 29°37' W 090°41'1 3.0
2018-Jun-16 09:00N 29°36' W 090°43'2 3.8
2018-Jun-16 08:30N 29°34' W 090°44'3 5.4
2018-Jun-16 08:00N 29°32' W 090°46'3 6.3
2018-Jun-16 07:30N 29°32' W 090°50'62 4.3
2018-Jun-15 17:05N 29°50' W 091°58'0 5.0
2018-Jun-15 17:00N 29°50' W 091°58'3 5.1
2018-Jun-15 16:30N 29°49' W 092°01'3 5.2
2018-Jun-15 16:00N 29°48' W 092°04'3 5.4
2018-Jun-15 15:30N 29°48' W 092°07'3 5.3
2018-Jun-15 15:00N 29°47' W 092°10'2 4.5
2018-Jun-15 14:30N 29°47' W 092°12'1 2.1
2018-Jun-15 14:00N 29°48' W 092°13'1 2.5
2018-Jun-15 13:30N 29°48' W 092°15'2 5.0
2018-Jun-15 13:00N 29°49' W 092°17'2 4.4
2018-Jun-15 12:30N 29°50' W 092°19'3 4.3
2018-Jun-15 11:47N 29°52' W 092°22'41 4.4
2018-Jun-15 02:18N 29°56' W 093°10'1 3.5
2018-Jun-15 02:00N 29°57' W 093°11'2 3.4
2018-Jun-15 01:29N 29°59' W 093°12'2 3.3
2018-Jun-15 01:00N 29°60' W 093°13'2 4.2
2018-Jun-15 00:30N 30°02' W 093°14'2 3.6
2018-Jun-15 00:00N 30°03' W 093°16'2 3.5
2018-Jun-14 23:30N 30°05' W 093°17'1 2.5
2018-Jun-14 23:00N 30°05' W 093°18'1 1.9
2018-Jun-14 22:30N 30°06' W 093°18'0 0.3
2018-Jun-14 22:00N 30°06' W 093°18'0 0.0
2018-Jun-14 21:28N 30°06' W 093°18'0 0.0
2018-Jun-14 21:00N 30°06' W 093°18'0 0.0
2018-Jun-14 20:30N 30°06' W 093°18'0 0.0
2018-Jun-14 20:00N 30°06' W 093°18'0 0.0
2018-Jun-14 19:30N 30°06' W 093°18'0 0.0
2018-Jun-14 19:00N 30°06' W 093°18'0 0.0
2018-Jun-14 18:30N 30°06' W 093°18'0 0.0
2018-Jun-14 18:00N 30°06' W 093°18'0 0.0
2018-Jun-14 17:30N 30°06' W 093°18'0 0.0
2018-Jun-14 17:00N 30°06' W 093°18'0 0.0
2018-Jun-14 16:30N 30°06' W 093°18'0 0.0
2018-Jun-14 15:59N 30°06' W 093°18'0 0.0
2018-Jun-14 15:30N 30°06' W 093°18'0 0.0
2018-Jun-14 15:00N 30°06' W 093°18'0 0.0
2018-Jun-14 14:30N 30°06' W 093°18'0 0.0
2018-Jun-14 14:00N 30°06' W 093°18'0 0.0
2018-Jun-14 13:25N 30°06' W 093°18'0 0.0
2018-Jun-14 13:00N 30°06' W 093°18'0 0.0
2018-Jun-14 12:25N 30°06' W 093°18'0 0.0
2018-Jun-14 12:00N 30°06' W 093°18'0 0.0
2018-Jun-14 11:28N 30°06' W 093°18'0 0.0
2018-Jun-14 11:00N 30°06' W 093°18'0 0.0
2018-Jun-14 10:30N 30°06' W 093°18'0 0.0
2018-Jun-14 10:00N 30°06' W 093°18'0 0.0
2018-Jun-14 09:30N 30°06' W 093°18'0 0.0
2018-Jun-14 09:00N 30°06' W 093°18'0 0.0
2018-Jun-14 08:30N 30°06' W 093°18'0 0.0
2018-Jun-14 08:00N 30°06' W 093°18'0 0.0
2018-Jun-14 07:30N 30°06' W 093°18'0 0.0
2018-Jun-14 07:00N 30°06' W 093°18'0 0.0
2018-Jun-14 06:30N 30°06' W 093°18'0 0.0
2018-Jun-14 06:00N 30°06' W 093°18'0 0.0
2018-Jun-14 05:29N 30°06' W 093°18'0 0.0
2018-Jun-14 05:00N 30°06' W 093°18'0 0.9
2018-Jun-14 04:30N 30°06' W 093°19'2 3.9
2018-Jun-14 04:00N 30°05' W 093°20'2 3.7
2018-Jun-14 03:30N 30°04' W 093°22'2 3.3
2018-Jun-14 03:00N 30°04' W 093°24'0 0.2
2018-Jun-14 02:30N 30°04' W 093°24'0 0.1
2018-Jun-14 02:00N 30°04' W 093°24'0 0.0
2018-Jun-14 01:30N 30°04' W 093°24'0 0.0
2018-Jun-14 01:00N 30°04' W 093°24'0 0.0
2018-Jun-14 00:29N 30°04' W 093°24'0 0.0
2018-Jun-13 23:59N 30°04' W 093°24'0 0.1
2018-Jun-13 23:30N 30°04' W 093°24'0 0.0
2018-Jun-13 23:00N 30°04' W 093°24'0 0.0
2018-Jun-13 22:30N 30°04' W 093°24'0 0.0
2018-Jun-13 21:59N 30°04' W 093°24'0 0.0
2018-Jun-13 21:28N 30°04' W 093°24'0 0.0
2018-Jun-13 21:00N 30°04' W 093°24'0 0.0
2018-Jun-13 20:30N 30°04' W 093°24'0 0.0
2018-Jun-13 20:00N 30°04' W 093°24'0 0.0
2018-Jun-13 19:29N 30°04' W 093°24'0 0.0
2018-Jun-13 19:00N 30°04' W 093°24'0 0.1
2018-Jun-13 18:30N 30°04' W 093°24'0 0.1
2018-Jun-13 18:00N 30°04' W 093°24'1 1.9
2018-Jun-13 17:29N 30°04' W 093°25'3 5.3
2018-Jun-13 17:00N 30°04' W 093°28'3 5.2
2018-Jun-13 16:30N 30°04' W 093°31'3 5.2
2018-Jun-13 16:00N 30°04' W 093°34'6 5.8
2018-Jun-13 15:03N 30°04' W 093°41'0 6.4
2018-Jun-13 14:59N 30°04' W 093°41'2 2.1
2018-Jun-13 13:56N 30°03' W 093°43'1 1.2
2018-Jun-13 13:29N 30°03' W 093°44'4 6.3
2018-Jun-13 12:52N 29°60' W 093°47'3 7.8
2018-Jun-13 12:30N 29°59' W 093°50'3 6.6
2018-Jun-13 12:00N 29°56' W 093°52'5 9.5
2018-Jun-13 11:30N 29°52' W 093°56'4 7.9
2018-Jun-13 11:00N 29°49' W 093°58'2 4.2
2018-Jun-13 10:30N 29°48' W 094°00'2 4.7
2018-Jun-13 10:00N 29°46' W 094°02'2 3.9
2018-Jun-13 09:30N 29°45' W 094°04'2 4.2
2018-Jun-13 09:00N 29°44' W 094°06'2 4.3
2018-Jun-13 08:30N 29°43' W 094°08'2 4.3
2018-Jun-13 08:00N 29°41' W 094°10'2 4.2
2018-Jun-13 07:30N 29°41' W 094°12'2 4.5
2018-Jun-13 07:00N 29°40' W 094°15'2 4.6
2018-Jun-13 06:29N 29°39' W 094°17'3 4.6
2018-Jun-13 05:56N 29°37' W 094°20'2 4.8
2018-Jun-13 05:29N 29°36' W 094°22'2 4.1
2018-Jun-13 04:59N 29°36' W 094°24'2 4.0
2018-Jun-13 04:28N 29°34' W 094°25'1 2.2
2018-Jun-13 03:55N 29°34' W 094°27'2 4.3
2018-Jun-13 03:30N 29°33' W 094°28'27 3.6
2018-Jun-12 19:55N 29°40' W 094°59'9 0.2
2018-Jun-11 03:40N 29°47' W 095°04'0 0.0
2018-Jun-11 03:24N 29°47' W 095°04'0 0.0
2018-Jun-11 02:56N 29°47' W 095°04'  
2018-Jun-07 06:30N 29°46' W 095°06'0 0.0
2018-Jun-07 05:52N 29°46' W 095°06'0 0.0
2018-Jun-07 04:36N 29°46' W 095°06'  

Dump ship's entire track history